createdAt,value
2023-01-20T00:00:21.383Z,996.20
2023-01-20T00:01:21.290Z,996.11
2023-01-20T00:02:21.452Z,996.16
2023-01-20T00:03:21.278Z,996.14
2023-01-20T00:04:21.246Z,996.18
2023-01-20T00:05:21.231Z,996.16
2023-01-20T00:06:21.239Z,996.21
2023-01-20T00:07:21.233Z,996.21
2023-01-20T00:08:21.195Z,996.21
2023-01-20T00:09:21.188Z,996.20
2023-01-20T00:10:21.168Z,996.24
2023-01-20T00:11:21.157Z,996.26
2023-01-20T00:12:21.155Z,996.30
2023-01-20T00:13:21.124Z,996.26
2023-01-20T00:14:21.117Z,996.25
2023-01-20T00:15:21.110Z,996.27
2023-01-20T00:16:21.138Z,996.33
2023-01-20T00:17:21.090Z,996.28
2023-01-20T00:18:21.091Z,996.33
2023-01-20T00:19:21.068Z,996.32
2023-01-20T00:20:21.043Z,996.36
2023-01-20T00:21:21.039Z,996.32
2023-01-20T00:22:21.042Z,996.33
2023-01-20T00:23:21.009Z,996.38
2023-01-20T00:24:20.997Z,996.34
2023-01-20T00:25:20.977Z,996.36
2023-01-20T00:26:20.981Z,996.37
2023-01-20T00:27:20.972Z,996.43
2023-01-20T00:28:20.941Z,996.43
2023-01-20T00:29:20.928Z,996.42
2023-01-20T00:30:20.934Z,996.44
2023-01-20T00:31:20.960Z,996.47
2023-01-20T00:32:20.901Z,996.50
2023-01-20T00:33:20.885Z,996.43
2023-01-20T00:34:20.881Z,996.44
2023-01-20T00:35:20.852Z,996.43
2023-01-20T00:36:20.854Z,996.50
2023-01-20T00:37:20.853Z,996.50
2023-01-20T00:38:20.814Z,996.51
2023-01-20T00:39:20.807Z,996.51
2023-01-20T00:40:20.785Z,996.57
2023-01-20T00:41:20.778Z,996.53
2023-01-20T00:42:20.774Z,996.58
2023-01-20T00:43:20.752Z,996.55
2023-01-20T00:44:20.735Z,996.56
2023-01-20T00:45:20.730Z,996.57
2023-01-20T00:46:20.711Z,996.63
2023-01-20T00:47:20.727Z,996.66
2023-01-20T00:48:20.705Z,996.56
2023-01-20T00:49:20.675Z,996.60
2023-01-20T00:50:20.703Z,996.62
2023-01-20T00:51:20.652Z,996.58
2023-01-20T00:52:20.655Z,996.65
2023-01-20T00:53:20.624Z,996.71
2023-01-20T00:54:20.611Z,996.67
2023-01-20T00:55:20.598Z,996.73
2023-01-20T00:56:20.587Z,996.72
2023-01-20T00:57:20.574Z,996.78
2023-01-20T00:58:20.579Z,996.73
2023-01-20T00:59:20.556Z,996.79
2023-01-20T01:00:20.558Z,996.82
2023-01-20T01:01:20.622Z,996.84
2023-01-20T01:02:20.546Z,996.85
2023-01-20T01:03:20.513Z,996.87
2023-01-20T01:04:20.485Z,996.90
2023-01-20T01:05:20.479Z,996.88
2023-01-20T01:06:20.482Z,996.90
2023-01-20T01:07:20.451Z,996.91
2023-01-20T01:08:20.452Z,996.93
2023-01-20T01:09:20.423Z,996.96
2023-01-20T01:10:20.409Z,996.91
2023-01-20T01:11:20.398Z,996.93
2023-01-20T01:12:20.385Z,997.00
2023-01-20T01:13:20.384Z,996.96
2023-01-20T01:14:20.358Z,996.91
2023-01-20T01:15:20.347Z,996.92
2023-01-20T01:16:20.383Z,996.96
2023-01-20T01:17:20.320Z,997.00
2023-01-20T01:18:20.320Z,996.95
2023-01-20T01:19:20.295Z,996.94
2023-01-20T01:20:20.278Z,996.98
2023-01-20T01:21:20.268Z,997.05
2023-01-20T01:22:20.274Z,997.00
2023-01-20T01:23:20.267Z,997.00
2023-01-20T01:24:20.236Z,997.06
2023-01-20T01:25:20.226Z,997.07
2023-01-20T01:26:20.208Z,997.10
2023-01-20T01:27:20.192Z,997.07
2023-01-20T01:28:20.209Z,997.11
2023-01-20T01:29:20.168Z,997.06
2023-01-20T01:30:20.242Z,997.13
2023-01-20T01:31:20.230Z,997.11
2023-01-20T01:32:20.127Z,997.13
2023-01-20T01:33:20.135Z,997.08
2023-01-20T01:34:20.102Z,997.11
2023-01-20T01:35:20.099Z,997.15
2023-01-20T01:36:20.083Z,997.14
2023-01-20T01:37:20.073Z,997.12
2023-01-20T01:38:20.087Z,997.16
2023-01-20T01:39:20.043Z,997.18
2023-01-20T01:40:20.032Z,997.20
2023-01-20T01:41:20.017Z,997.17
2023-01-20T01:42:20.012Z,997.19
2023-01-20T01:43:20.015Z,997.17
2023-01-20T01:44:19.976Z,997.18
2023-01-20T01:45:19.967Z,997.18
2023-01-20T01:46:19.959Z,997.21
2023-01-20T01:47:19.942Z,997.28
2023-01-20T01:48:19.945Z,997.29
2023-01-20T01:49:19.922Z,997.23
2023-01-20T01:50:19.908Z,997.26
2023-01-20T01:51:19.931Z,997.26
2023-01-20T01:52:19.878Z,997.29
2023-01-20T01:53:19.888Z,997.29
2023-01-20T01:54:19.876Z,997.33
2023-01-20T01:55:19.855Z,997.31
2023-01-20T01:56:19.833Z,997.31
2023-01-20T01:57:19.824Z,997.34
2023-01-20T01:58:19.820Z,997.37
2023-01-20T01:59:19.793Z,997.32
2023-01-20T02:00:19.785Z,997.34
2023-01-20T02:01:19.901Z,997.35
2023-01-20T02:02:22.709Z,997.33
2023-01-20T02:03:19.755Z,997.32
2023-01-20T02:04:19.736Z,997.33
2023-01-20T02:05:19.717Z,997.32
2023-01-20T02:06:19.707Z,997.30
2023-01-20T02:07:19.695Z,997.32
2023-01-20T02:08:19.694Z,997.37
2023-01-20T02:09:19.673Z,997.33
2023-01-20T02:10:19.681Z,997.31
2023-01-20T02:11:19.648Z,997.35
2023-01-20T02:12:19.632Z,997.36
2023-01-20T02:13:19.635Z,997.34
2023-01-20T02:14:19.605Z,997.29
2023-01-20T02:15:19.593Z,997.36
2023-01-20T02:16:19.631Z,997.34
2023-01-20T02:17:19.581Z,997.34
2023-01-20T02:18:19.573Z,997.36
2023-01-20T02:19:19.544Z,997.39
2023-01-20T02:20:19.545Z,997.40
2023-01-20T02:21:19.518Z,997.37
2023-01-20T02:22:19.506Z,997.39
2023-01-20T02:23:19.511Z,997.39
2023-01-20T02:24:19.480Z,997.34
2023-01-20T02:25:19.475Z,997.39
2023-01-20T02:26:19.471Z,997.40
2023-01-20T02:27:19.450Z,997.43
2023-01-20T02:28:19.447Z,997.41
2023-01-20T02:29:19.422Z,997.42
2023-01-20T02:30:19.428Z,997.48
2023-01-20T02:31:19.453Z,997.48
2023-01-20T02:32:19.379Z,997.46
2023-01-20T02:33:19.385Z,997.51
2023-01-20T02:34:19.353Z,997.53
2023-01-20T02:35:19.346Z,997.51
2023-01-20T02:36:19.329Z,997.58
2023-01-20T02:37:19.318Z,997.56
2023-01-20T02:38:19.330Z,997.61
2023-01-20T02:39:27.273Z,997.68
2023-01-20T02:40:20.287Z,997.63
2023-01-20T02:41:19.276Z,997.66
2023-01-20T02:42:19.298Z,997.64
2023-01-20T02:43:19.260Z,997.65
2023-01-20T02:44:19.234Z,997.64
2023-01-20T02:45:19.220Z,997.68
2023-01-20T02:46:19.206Z,997.65
2023-01-20T02:47:19.197Z,997.66
2023-01-20T02:48:19.197Z,997.66
2023-01-20T02:49:19.167Z,997.69
2023-01-20T02:50:19.153Z,997.66
2023-01-20T02:51:19.143Z,997.70
2023-01-20T02:52:19.135Z,997.69
2023-01-20T02:53:19.130Z,997.71
2023-01-20T02:54:19.108Z,997.70
2023-01-20T02:55:19.093Z,997.75
2023-01-20T02:56:19.079Z,997.74
2023-01-20T02:57:19.074Z,997.76
2023-01-20T02:58:19.092Z,997.76
2023-01-20T02:59:19.053Z,997.76
2023-01-20T03:00:19.035Z,997.71
2023-01-20T03:01:19.079Z,997.77
2023-01-20T03:02:19.001Z,997.76
2023-01-20T03:03:19.004Z,997.80
2023-01-20T03:04:19.002Z,997.79
2023-01-20T03:05:18.965Z,997.82
2023-01-20T03:06:18.953Z,997.86
2023-01-20T03:07:18.943Z,997.82
2023-01-20T03:08:18.925Z,997.88
2023-01-20T03:09:18.931Z,997.86
2023-01-20T03:10:18.902Z,997.90
2023-01-20T03:11:18.894Z,997.91
2023-01-20T03:12:18.878Z,997.91
2023-01-20T03:13:18.868Z,997.92
2023-01-20T03:14:18.888Z,997.94
2023-01-20T03:15:18.845Z,997.97
2023-01-20T03:16:18.923Z,998.01
2023-01-20T03:17:18.813Z,997.97
2023-01-20T03:18:18.802Z,997.95
2023-01-20T03:19:20.390Z,997.95
2023-01-20T03:20:18.781Z,997.96
2023-01-20T03:21:18.769Z,997.92
2023-01-20T03:22:18.754Z,997.96
2023-01-20T03:23:18.739Z,997.98
2023-01-20T03:24:18.767Z,997.92
2023-01-20T03:25:18.725Z,997.95
2023-01-20T03:26:18.711Z,997.95
2023-01-20T03:27:18.688Z,997.98
2023-01-20T03:28:18.676Z,997.97
2023-01-20T03:29:18.685Z,997.97
2023-01-20T03:30:18.676Z,998.00
2023-01-20T03:31:18.768Z,998.05
2023-01-20T03:32:18.629Z,998.04
2023-01-20T03:33:18.615Z,998.05
2023-01-20T03:34:18.615Z,997.98
2023-01-20T03:35:18.590Z,998.01
2023-01-20T03:36:18.587Z,998.06
2023-01-20T03:37:18.568Z,998.12
2023-01-20T03:38:18.553Z,998.13
2023-01-20T03:39:18.550Z,998.13
2023-01-20T03:40:18.528Z,998.13
2023-01-20T03:41:18.514Z,998.19
2023-01-20T03:42:18.507Z,998.16
2023-01-20T03:43:18.494Z,998.13
2023-01-20T03:44:18.491Z,998.17
2023-01-20T03:45:18.471Z,998.16
2023-01-20T03:46:18.480Z,998.21
2023-01-20T03:47:18.446Z,998.22
2023-01-20T03:48:18.448Z,998.24
2023-01-20T03:49:18.457Z,998.22
2023-01-20T03:50:18.411Z,998.28
2023-01-20T03:51:18.395Z,998.27
2023-01-20T03:52:18.376Z,998.31
2023-01-20T03:53:18.371Z,998.27
2023-01-20T03:54:18.367Z,998.24
2023-01-20T03:55:18.362Z,998.29
2023-01-20T03:56:18.329Z,998.26
2023-01-20T03:57:18.329Z,998.31
2023-01-20T03:58:18.305Z,998.30
2023-01-20T03:59:18.315Z,998.35
2023-01-20T04:00:18.279Z,998.30
2023-01-20T04:01:19.201Z,998.31
2023-01-20T04:02:18.448Z,998.34
2023-01-20T04:03:18.260Z,998.30
2023-01-20T04:04:18.251Z,998.29
2023-01-20T04:05:18.218Z,998.36
2023-01-20T04:06:18.203Z,998.30
2023-01-20T04:07:18.206Z,998.35
2023-01-20T04:08:18.186Z,998.29
2023-01-20T04:09:18.192Z,998.34
2023-01-20T04:10:18.154Z,998.32
2023-01-20T04:11:18.139Z,998.33
2023-01-20T04:12:18.133Z,998.41
2023-01-20T04:13:18.119Z,998.31
2023-01-20T04:14:18.119Z,998.37
2023-01-20T04:15:18.182Z,998.39
2023-01-20T04:16:18.077Z,998.32
2023-01-20T04:17:18.067Z,998.35
2023-01-20T04:18:18.080Z,998.41
2023-01-20T04:19:18.065Z,998.41
2023-01-20T04:20:18.027Z,998.43
2023-01-20T04:21:18.016Z,998.35
2023-01-20T04:22:18.003Z,998.38
2023-01-20T04:23:17.987Z,998.35
2023-01-20T04:24:17.999Z,998.40
2023-01-20T04:25:17.959Z,998.34
2023-01-20T04:26:17.950Z,998.40
2023-01-20T04:27:17.937Z,998.40
2023-01-20T04:28:17.927Z,998.42
2023-01-20T04:29:17.913Z,998.43
2023-01-20T04:30:18.054Z,998.47
2023-01-20T04:31:29.480Z,998.43
2023-01-20T04:32:17.879Z,998.49
2023-01-20T04:33:17.868Z,998.49
2023-01-20T04:34:17.875Z,998.58
2023-01-20T04:35:17.859Z,998.53
2023-01-20T04:36:17.828Z,998.60
2023-01-20T04:37:17.809Z,998.62
2023-01-20T04:38:17.804Z,998.62
2023-01-20T04:39:17.793Z,998.67
2023-01-20T04:40:17.799Z,998.63
2023-01-20T04:41:17.772Z,998.66
2023-01-20T04:42:17.749Z,998.69
2023-01-20T04:43:17.741Z,998.67
2023-01-20T04:44:17.727Z,998.71
2023-01-20T04:45:17.912Z,998.68
2023-01-20T04:46:17.756Z,998.73
2023-01-20T04:47:17.694Z,998.76
2023-01-20T04:48:17.680Z,998.70
2023-01-20T04:49:17.675Z,998.73
2023-01-20T04:50:18.683Z,998.76
2023-01-20T04:51:17.639Z,998.84
2023-01-20T04:52:17.633Z,998.82
2023-01-20T04:53:17.616Z,998.81
2023-01-20T04:54:17.607Z,998.83
2023-01-20T04:55:17.810Z,998.81
2023-01-20T04:56:17.582Z,998.80
2023-01-20T04:57:17.566Z,998.84
2023-01-20T04:58:17.554Z,998.84
2023-01-20T04:59:17.541Z,998.90
2023-01-20T05:00:17.540Z,998.85
2023-01-20T05:01:17.606Z,998.90
2023-01-20T05:02:17.633Z,998.88
2023-01-20T05:03:17.486Z,998.89
2023-01-20T05:04:17.475Z,998.93
2023-01-20T05:05:17.874Z,998.92
2023-01-20T05:06:17.495Z,998.88
2023-01-20T05:07:17.439Z,998.94
2023-01-20T05:08:17.429Z,998.93
2023-01-20T05:09:17.412Z,998.98
2023-01-20T05:10:17.418Z,998.95
2023-01-20T05:11:17.389Z,998.92
2023-01-20T05:12:17.376Z,998.96
2023-01-20T05:13:17.362Z,998.96
2023-01-20T05:14:17.347Z,999.00
2023-01-20T05:15:17.574Z,999.00
2023-01-20T05:16:17.405Z,998.96
2023-01-20T05:17:17.308Z,999.00
2023-01-20T05:18:17.302Z,998.95
2023-01-20T05:19:17.288Z,998.96
2023-01-20T05:20:17.294Z,999.03
2023-01-20T05:21:17.261Z,999.03
2023-01-20T05:22:17.277Z,999.01
2023-01-20T05:23:17.235Z,999.03
2023-01-20T05:24:17.227Z,999.06
2023-01-20T05:25:17.338Z,999.07
2023-01-20T05:26:17.197Z,999.09
2023-01-20T05:27:17.215Z,999.07
2023-01-20T05:28:17.178Z,999.11
2023-01-20T05:29:17.171Z,999.07
2023-01-20T05:30:17.179Z,999.14
2023-01-20T05:31:17.272Z,999.14
2023-01-20T05:32:17.128Z,999.18
2023-01-20T05:33:17.129Z,999.17
2023-01-20T05:34:17.099Z,999.14
2023-01-20T05:35:17.437Z,999.15
2023-01-20T05:36:17.081Z,999.15
2023-01-20T05:37:17.067Z,999.16
2023-01-20T05:38:17.073Z,999.16
2023-01-20T05:39:17.053Z,999.13
2023-01-20T05:40:17.059Z,999.12
2023-01-20T05:41:17.011Z,999.20
2023-01-20T05:42:17.011Z,999.16
2023-01-20T05:43:16.989Z,999.19
2023-01-20T05:44:16.983Z,999.21
2023-01-20T05:45:17.484Z,999.24
2023-01-20T05:46:17.014Z,999.22
2023-01-20T05:47:16.936Z,999.32
2023-01-20T05:48:16.925Z,999.28
2023-01-20T05:49:16.917Z,999.28
2023-01-20T05:50:16.908Z,999.31
2023-01-20T05:51:16.903Z,999.35
2023-01-20T05:52:16.908Z,999.33
2023-01-20T05:53:16.864Z,999.40
2023-01-20T05:54:16.883Z,999.39
2023-01-20T05:55:17.065Z,999.41
2023-01-20T05:56:16.839Z,999.42
2023-01-20T05:57:16.811Z,999.39
2023-01-20T05:58:16.801Z,999.41
2023-01-20T05:59:16.868Z,999.45
2023-01-20T06:00:16.773Z,999.44
2023-01-20T06:01:16.799Z,999.50
2023-01-20T06:02:16.745Z,999.51
2023-01-20T06:03:16.741Z,999.45
2023-01-20T06:04:16.740Z,999.50
2023-01-20T06:05:17.118Z,999.48
2023-01-20T06:06:16.712Z,999.53
2023-01-20T06:07:16.700Z,999.53
2023-01-20T06:08:16.677Z,999.54
2023-01-20T06:09:16.664Z,999.58
2023-01-20T06:10:16.671Z,999.56
2023-01-20T06:11:16.648Z,999.56
2023-01-20T06:12:16.620Z,999.60
2023-01-20T06:13:16.613Z,999.58
2023-01-20T06:14:16.605Z,999.62
2023-01-20T06:15:16.925Z,999.62
2023-01-20T06:16:16.657Z,999.66
2023-01-20T06:17:16.573Z,999.68
2023-01-20T06:18:16.552Z,999.68
2023-01-20T06:19:16.540Z,999.63
2023-01-20T06:20:16.529Z,999.63
2023-01-20T06:21:16.525Z,999.68
2023-01-20T06:22:16.518Z,999.67
2023-01-20T06:23:16.495Z,999.66
2023-01-20T06:24:16.472Z,999.66
2023-01-20T06:25:16.860Z,999.70
2023-01-20T06:26:16.510Z,999.69
2023-01-20T06:27:16.445Z,999.71
2023-01-20T06:28:16.428Z,999.77
2023-01-20T06:29:16.411Z,999.76
2023-01-20T06:30:16.405Z,999.77
2023-01-20T06:31:16.512Z,999.78
2023-01-20T06:32:16.382Z,999.79
2023-01-20T06:33:16.363Z,999.80
2023-01-20T06:34:16.378Z,999.80
2023-01-20T06:35:16.808Z,999.82
2023-01-20T06:36:16.334Z,999.77
2023-01-20T06:37:16.308Z,999.91
2023-01-20T06:38:16.295Z,999.90
2023-01-20T06:39:16.285Z,999.91
2023-01-20T06:40:16.275Z,999.93
2023-01-20T06:41:16.286Z,999.89
2023-01-20T06:42:16.279Z,999.92
2023-01-20T06:43:16.242Z,999.96
2023-01-20T06:44:16.223Z,999.88
2023-01-20T06:45:16.586Z,999.91
2023-01-20T06:46:16.277Z,999.98
2023-01-20T06:47:16.187Z,999.99
2023-01-20T06:48:16.191Z,1000.00
2023-01-20T06:49:16.158Z,999.98
2023-01-20T06:50:16.173Z,999.97
2023-01-20T06:51:16.157Z,1000.01
2023-01-20T06:52:16.135Z,1000.04
2023-01-20T06:53:16.128Z,1000.08
2023-01-20T06:54:16.103Z,1000.06
2023-01-20T06:55:16.573Z,1000.13
2023-01-20T06:56:16.094Z,1000.12
2023-01-20T06:57:16.059Z,1000.12
2023-01-20T06:58:16.068Z,1000.17
2023-01-20T06:59:16.035Z,1000.12
2023-01-20T07:00:16.040Z,1000.15
2023-01-20T07:01:16.163Z,1000.15
2023-01-20T07:02:16.177Z,1000.14
2023-01-20T07:03:15.986Z,1000.14
2023-01-20T07:04:15.976Z,1000.20
2023-01-20T07:05:16.256Z,1000.13
2023-01-20T07:06:15.994Z,1000.19
2023-01-20T07:07:15.938Z,1000.22
2023-01-20T07:08:15.927Z,1000.25
2023-01-20T07:09:15.914Z,1000.25
2023-01-20T07:10:15.899Z,1000.31
2023-01-20T07:11:15.897Z,1000.32
2023-01-20T07:12:15.887Z,1000.30
2023-01-20T07:13:15.857Z,1000.32
2023-01-20T07:14:15.869Z,1000.30
2023-01-20T07:15:16.186Z,1000.37
2023-01-20T07:16:16.222Z,1000.35
2023-01-20T07:17:15.807Z,1000.34
2023-01-20T07:18:15.804Z,1000.36
2023-01-20T07:19:15.781Z,1000.42
2023-01-20T07:20:15.772Z,1000.41
2023-01-20T07:21:15.775Z,1000.45
2023-01-20T07:22:15.747Z,1000.47
2023-01-20T07:23:15.729Z,1000.41
2023-01-20T07:24:15.723Z,1000.43
2023-01-20T07:25:15.986Z,1000.46
2023-01-20T07:26:15.710Z,1000.44
2023-01-20T07:27:15.678Z,1000.46
2023-01-20T07:28:15.671Z,1000.46
2023-01-20T07:29:17.858Z,1000.45
2023-01-20T07:30:15.668Z,1000.44
2023-01-20T07:31:15.684Z,1000.50
2023-01-20T07:32:15.638Z,1000.49
2023-01-20T07:33:15.611Z,1000.48
2023-01-20T07:34:15.594Z,1000.59
2023-01-20T07:35:15.868Z,1000.60
2023-01-20T07:36:15.580Z,1000.65
2023-01-20T07:37:15.568Z,1000.65
2023-01-20T07:38:15.554Z,1000.63
2023-01-20T07:39:15.545Z,1000.70
2023-01-20T07:40:15.525Z,1000.64
2023-01-20T07:41:15.506Z,1000.65
2023-01-20T07:42:15.511Z,1000.68
2023-01-20T07:43:15.490Z,1000.68
2023-01-20T07:44:15.469Z,1000.74
2023-01-20T07:45:15.742Z,1000.71
2023-01-20T07:46:15.474Z,1000.68
2023-01-20T07:47:15.454Z,1000.71
2023-01-20T07:48:15.417Z,1000.71
2023-01-20T07:49:15.412Z,1000.74
2023-01-20T07:50:15.397Z,1000.79
2023-01-20T07:51:15.384Z,1000.75
2023-01-20T07:52:15.398Z,1000.74
2023-01-20T07:53:15.358Z,1000.67
2023-01-20T07:54:15.348Z,1000.80
2023-01-20T07:55:15.726Z,1000.76
2023-01-20T07:56:15.335Z,1000.73
2023-01-20T07:57:15.329Z,1000.80
2023-01-20T07:58:15.294Z,1000.79
2023-01-20T07:59:15.281Z,1000.80
2023-01-20T08:00:15.269Z,1000.76
2023-01-20T08:01:15.414Z,1000.70
2023-01-20T08:02:15.283Z,1000.76
2023-01-20T08:03:15.236Z,1000.83
2023-01-20T08:04:15.221Z,1000.81
2023-01-20T08:05:15.563Z,1000.83
2023-01-20T08:06:15.200Z,1000.81
2023-01-20T08:07:15.195Z,1000.80
2023-01-20T08:08:15.167Z,1000.80
2023-01-20T08:09:15.154Z,1000.81
2023-01-20T08:10:15.182Z,1000.81
2023-01-20T08:11:15.130Z,1000.82
2023-01-20T08:12:15.130Z,1000.88
2023-01-20T08:13:15.107Z,1000.86
2023-01-20T08:14:15.095Z,1000.88
2023-01-20T08:15:15.363Z,1000.88
2023-01-20T08:16:15.124Z,1000.87
2023-01-20T08:17:15.109Z,1000.88
2023-01-20T08:18:15.065Z,1000.91
2023-01-20T08:19:15.028Z,1000.95
2023-01-20T08:20:15.022Z,1000.98
2023-01-20T08:21:15.002Z,1000.99
2023-01-20T08:22:15.007Z,1000.99
2023-01-20T08:23:14.989Z,1000.96
2023-01-20T08:24:14.963Z,1001.04
2023-01-20T08:25:15.179Z,1000.99
2023-01-20T08:26:14.942Z,1000.96
2023-01-20T08:27:14.938Z,1000.99
2023-01-20T08:28:14.924Z,1001.02
2023-01-20T08:29:14.904Z,1001.02
2023-01-20T08:30:14.892Z,1001.08
2023-01-20T08:31:15.105Z,1001.06
2023-01-20T08:32:14.888Z,1001.07
2023-01-20T08:33:14.860Z,1001.11
2023-01-20T08:34:14.865Z,1001.15
2023-01-20T08:35:15.062Z,1001.16
2023-01-20T08:36:14.816Z,1001.16
2023-01-20T08:37:14.824Z,1001.17
2023-01-20T08:38:14.873Z,1001.19
2023-01-20T08:39:14.816Z,1001.17
2023-01-20T08:40:14.816Z,1001.16
2023-01-20T08:41:14.755Z,1001.18
2023-01-20T08:42:14.750Z,1001.18
2023-01-20T08:43:14.731Z,1001.18
2023-01-20T08:44:14.718Z,1001.20
2023-01-20T08:45:15.091Z,1001.18
2023-01-20T08:46:14.823Z,1001.12
2023-01-20T08:47:14.698Z,1001.17
2023-01-20T08:48:14.663Z,1001.17
2023-01-20T08:49:14.647Z,1001.20
2023-01-20T08:50:14.672Z,1001.24
2023-01-20T08:51:14.679Z,1001.24
2023-01-20T08:52:14.640Z,1001.22
2023-01-20T08:53:14.600Z,1001.26
2023-01-20T08:54:14.603Z,1001.27
2023-01-20T08:55:14.861Z,1001.27
2023-01-20T08:56:14.561Z,1001.30
2023-01-20T08:57:14.546Z,1001.32
2023-01-20T08:58:14.552Z,1001.34
2023-01-20T08:59:14.532Z,1001.33
2023-01-20T09:00:14.515Z,1001.39
2023-01-20T09:01:14.544Z,1001.35
2023-01-20T09:02:14.516Z,1001.40
2023-01-20T09:03:14.485Z,1001.32
2023-01-20T09:04:14.461Z,1001.32
2023-01-20T09:05:14.798Z,1001.37
2023-01-20T09:06:14.500Z,1001.39
2023-01-20T09:07:14.437Z,1001.41
2023-01-20T09:08:14.426Z,1001.44
2023-01-20T09:09:14.406Z,1001.43
2023-01-20T09:10:14.388Z,1001.44
2023-01-20T09:11:14.414Z,1001.39
2023-01-20T09:12:14.358Z,1001.44
2023-01-20T09:13:14.370Z,1001.41
2023-01-20T09:14:14.337Z,1001.43
2023-01-20T09:15:14.587Z,1001.45
2023-01-20T09:16:14.334Z,1001.38
2023-01-20T09:17:14.294Z,1001.36
2023-01-20T09:18:14.296Z,1001.47
2023-01-20T09:19:14.275Z,1001.43
2023-01-20T09:20:14.274Z,1001.48
2023-01-20T09:21:14.274Z,1001.50
2023-01-20T09:22:16.503Z,1001.53
2023-01-20T09:23:14.244Z,1001.55
2023-01-20T09:24:14.207Z,1001.57
2023-01-20T09:25:14.618Z,1001.58
2023-01-20T09:26:19.723Z,1001.56
2023-01-20T09:27:14.171Z,1001.60
2023-01-20T09:28:14.196Z,1001.65
2023-01-20T09:29:14.156Z,1001.62
2023-01-20T09:30:14.130Z,1001.67
2023-01-20T09:31:14.288Z,1001.68
2023-01-20T09:32:14.111Z,1001.63
2023-01-20T09:33:14.122Z,1001.70
2023-01-20T09:34:15.390Z,1001.69
2023-01-20T09:35:14.558Z,1001.64
2023-01-20T09:36:14.058Z,1001.70
2023-01-20T09:37:14.043Z,1001.74
2023-01-20T09:38:14.065Z,1001.70
2023-01-20T09:39:14.017Z,1001.72
2023-01-20T09:40:14.347Z,1001.72
2023-01-20T09:41:13.994Z,1001.79
2023-01-20T09:42:13.982Z,1001.71
2023-01-20T09:43:13.979Z,1001.77
2023-01-20T09:44:13.955Z,1001.76
2023-01-20T09:45:14.419Z,1001.77
2023-01-20T09:46:13.981Z,1001.73
2023-01-20T09:47:13.928Z,1001.75
2023-01-20T09:48:13.911Z,1001.72
2023-01-20T09:49:13.897Z,1001.73
2023-01-20T09:50:14.352Z,1001.69
2023-01-20T09:51:13.867Z,1001.72
2023-01-20T09:52:13.847Z,1001.75
2023-01-20T09:53:13.852Z,1001.74
2023-01-20T09:54:13.840Z,1001.76
2023-01-20T09:55:13.821Z,1001.73
2023-01-20T09:56:13.801Z,1001.72
2023-01-20T09:57:13.784Z,1001.73
2023-01-20T09:58:13.767Z,1001.67
2023-01-20T09:59:13.773Z,1001.71
2023-01-20T10:00:14.133Z,1001.75
2023-01-20T10:01:13.781Z,1001.73
2023-01-20T10:02:13.724Z,1001.74
2023-01-20T10:03:13.712Z,1001.72
2023-01-20T10:04:13.712Z,1001.77
2023-01-20T10:05:13.769Z,1001.80
2023-01-20T10:06:13.668Z,1001.72
2023-01-20T10:07:13.660Z,1001.73
2023-01-20T10:08:13.649Z,1001.78
2023-01-20T10:09:13.652Z,1001.80
2023-01-20T10:10:13.938Z,1001.74
2023-01-20T10:11:13.672Z,1001.78
2023-01-20T10:12:13.597Z,1001.83
2023-01-20T10:13:13.587Z,1001.77
2023-01-20T10:14:13.626Z,1001.72
2023-01-20T10:15:13.561Z,1001.64
2023-01-20T10:16:13.724Z,1001.76
2023-01-20T10:17:13.541Z,1001.69
2023-01-20T10:18:13.570Z,1001.77
2023-01-20T10:19:13.522Z,1001.70
2023-01-20T10:20:13.835Z,1001.71
2023-01-20T10:21:13.483Z,1001.75
2023-01-20T10:22:13.464Z,1001.76
2023-01-20T10:23:13.456Z,1001.75
2023-01-20T10:24:13.451Z,1001.77
2023-01-20T10:25:13.439Z,1001.77
2023-01-20T10:26:13.466Z,1001.82
2023-01-20T10:27:13.405Z,1001.84
2023-01-20T10:28:13.385Z,1001.84
2023-01-20T10:29:13.393Z,1001.92
2023-01-20T10:30:13.689Z,1001.88
2023-01-20T10:31:13.493Z,1001.88
2023-01-20T10:32:13.335Z,1001.87
2023-01-20T10:33:13.327Z,1002.11
2023-01-20T10:34:13.323Z,1002.04
2023-01-20T10:35:13.705Z,1002.26
2023-01-20T10:36:13.286Z,1002.14
2023-01-20T10:37:13.274Z,1002.16
2023-01-20T10:38:13.256Z,1002.10
2023-01-20T10:39:13.269Z,1001.97
2023-01-20T10:40:13.291Z,1001.95
2023-01-20T10:41:15.593Z,1002.09
2023-01-20T10:42:13.244Z,1001.89
2023-01-20T10:43:13.215Z,1001.73
2023-01-20T10:44:13.199Z,1001.76
2023-01-20T10:45:13.789Z,1001.73
2023-01-20T10:46:13.163Z,1001.71
2023-01-20T10:47:13.735Z,1001.76
2023-01-20T10:48:13.125Z,1001.76
2023-01-20T10:49:13.143Z,1001.74
2023-01-20T10:50:13.108Z,1001.74
2023-01-20T10:51:13.091Z,1001.77
2023-01-20T10:52:13.076Z,1001.74
2023-01-20T10:53:13.674Z,1001.75
2023-01-20T10:54:13.061Z,1001.77
2023-01-20T10:55:13.396Z,1001.79
2023-01-20T10:56:13.020Z,1001.77
2023-01-20T10:57:13.014Z,1001.81
2023-01-20T10:58:13.027Z,1001.79
2023-01-20T10:59:13.011Z,1001.81
2023-01-20T11:00:13.148Z,1001.85
2023-01-20T11:01:12.962Z,1001.85
2023-01-20T11:02:13.032Z,1001.86
2023-01-20T11:03:12.976Z,1001.85
2023-01-20T11:04:12.917Z,1001.90
2023-01-20T11:05:12.921Z,1001.91
2023-01-20T11:06:12.889Z,1001.91
2023-01-20T11:07:12.882Z,1001.88
2023-01-20T11:08:12.865Z,1001.84
2023-01-20T11:09:12.852Z,1001.88
2023-01-20T11:10:13.326Z,1001.92
2023-01-20T11:11:12.828Z,1001.90
2023-01-20T11:12:12.811Z,1001.90
2023-01-20T11:13:12.799Z,1001.94
2023-01-20T11:14:12.816Z,1001.93
2023-01-20T11:15:12.792Z,1001.95
2023-01-20T11:16:12.915Z,1001.95
2023-01-20T11:17:12.751Z,1001.95
2023-01-20T11:18:12.735Z,1001.95
2023-01-20T11:19:12.721Z,1001.92
2023-01-20T11:20:12.726Z,1001.93
2023-01-20T11:21:12.695Z,1001.93
2023-01-20T11:22:12.682Z,1001.95
2023-01-20T11:23:12.676Z,1001.98
2023-01-20T11:24:12.665Z,1001.98
2023-01-20T11:25:12.671Z,1001.93
2023-01-20T11:26:12.714Z,1001.93
2023-01-20T11:27:12.619Z,1001.99
2023-01-20T11:28:12.608Z,1001.94
2023-01-20T11:29:12.602Z,1001.93
2023-01-20T11:30:12.675Z,1001.95
2023-01-20T11:31:12.689Z,1001.94
2023-01-20T11:32:12.557Z,1002.02
2023-01-20T11:33:12.568Z,1001.97
2023-01-20T11:34:12.550Z,1001.96
2023-01-20T11:35:12.776Z,1001.97
2023-01-20T11:36:12.506Z,1002.10
2023-01-20T11:37:12.498Z,1002.00
2023-01-20T11:38:12.477Z,1002.29
2023-01-20T11:39:12.469Z,1002.32
2023-01-20T11:40:12.573Z,1002.17
2023-01-20T11:41:12.440Z,1002.06
2023-01-20T11:42:12.434Z,1001.95
2023-01-20T11:43:12.411Z,1001.92
2023-01-20T11:44:12.397Z,1001.78
2023-01-20T11:45:21.177Z,1001.86
2023-01-20T11:46:12.593Z,1001.86
2023-01-20T11:47:12.363Z,1001.82
2023-01-20T11:48:14.078Z,1001.86
2023-01-20T11:49:12.347Z,1001.94
2023-01-20T11:50:12.777Z,1001.87
2023-01-20T11:51:12.314Z,1002.07
2023-01-20T11:52:12.293Z,1001.87
2023-01-20T11:53:12.280Z,1001.85
2023-01-20T11:54:12.266Z,1001.92
2023-01-20T11:55:12.271Z,1001.92
2023-01-20T11:56:12.241Z,1001.98
2023-01-20T11:57:12.232Z,1001.96
2023-01-20T11:58:12.219Z,1001.93
2023-01-20T11:59:12.200Z,1001.97
2023-01-20T12:00:12.224Z,1001.94
2023-01-20T12:01:12.179Z,1001.86
2023-01-20T12:02:12.254Z,1001.97
2023-01-20T12:03:12.154Z,1001.95
2023-01-20T12:04:12.156Z,1001.97
2023-01-20T12:05:12.144Z,1002.05
2023-01-20T12:06:12.112Z,1002.01
2023-01-20T12:07:12.102Z,1001.88
2023-01-20T12:08:12.088Z,1001.99
2023-01-20T12:09:12.079Z,1002.05
2023-01-20T12:10:12.073Z,1001.71
2023-01-20T12:11:12.043Z,1001.73
2023-01-20T12:12:12.031Z,1001.72
2023-01-20T12:13:12.019Z,1001.78
2023-01-20T12:14:12.005Z,1001.84
2023-01-20T12:15:11.994Z,1001.90
2023-01-20T12:16:12.005Z,1001.97
2023-01-20T12:17:11.966Z,1002.05
2023-01-20T12:18:11.975Z,1002.02